^^
Saratoga-Weather Station Historical Data
Daily Summary for April 21, 2020 Units:  Both    English   Metric
Daily Weekly Monthly Yearly Custom
  High: Low: Average:
Temperature: 46.9 °F /  8.3 °C 36.3 °F /  2.4 °C 41.2 °F /  5.1 °C
Dew Point: 39.6 °F /  4.2 °C 34.2 °F /  1.2 °C 36.1 °F /  2.3 °C
Humidity: 93% 65% 82%
Wind Speed: 14.1mph /  22.7km/h - 3mph /  4.9km/h
Wind Gust: 19mph /  30.6km/h - -
Wind- - WSW
Pressure: 30.4 in /  1030.5 hPa 30.2 in /  1021.3 hPa -
Precipitation: 0 in /  0.0 mm    
Historical Graphs
 
 
Tabular Data for April 21, 2020
Time Temperature Dew Point Pressure Wind Wind Speed Wind Gust Humidity Rainfall Rate (Hourly) solar
00:00 41.9 °F /  5.5 °C 37.9 °F /  3.3 °C 30.2in /  1021.3hPa WNW 8.9mph /  14.3km/h 9mph /  14.5km/h 86% 0in /  0.0mm 0 W/m2
00:05 41.9 °F /  5.5 °C 37.9 °F /  3.3 °C 30.2in /  1021.3hPa WSW 4.9mph /  7.9km/h 11mph /  17.7km/h 86% 0in /  0.0mm 0 W/m2
00:10 41.9 °F /  5.5 °C 37.8 °F /  3.2 °C 30.2in /  1021.3hPa WNW 10.1mph /  16.3km/h 11mph /  17.7km/h 85% 0in /  0.0mm 0 W/m2
00:15 41.9 °F /  5.5 °C 37.8 °F /  3.2 °C 30.2in /  1021.3hPa West 2mph /  3.2km/h 3mph /  4.8km/h 85% 0in /  0.0mm 0 W/m2
00:20 41.7 °F /  5.4 °C 37.8 °F /  3.2 °C 30.2in /  1021.3hPa WNW 4mph /  6.4km/h 10mph /  16.1km/h 86% 0in /  0.0mm 0 W/m2
00:25 41.7 °F /  5.4 °C 37.8 °F /  3.2 °C 30.2in /  1021.7hPa West 4mph /  6.4km/h 11mph /  17.7km/h 86% 0in /  0.0mm 0 W/m2
00:30 41.5 °F /  5.3 °C 37.9 °F /  3.3 °C 30.2in /  1022.0hPa NW 4.9mph /  7.9km/h 8mph /  12.9km/h 87% 0in /  0.0mm 0 W/m2
00:35 41.5 °F /  5.3 °C 37.9 °F /  3.3 °C 30.2in /  1022.0hPa WNW 8.1mph /  13km/h 10mph /  16.1km/h 87% 0in /  0.0mm 0 W/m2
00:40 41.5 °F /  5.3 °C 37.6 °F /  3.1 °C 30.2in /  1022.0hPa West 8.9mph /  14.3km/h 9mph /  14.5km/h 86% 0in /  0.0mm 0 W/m2
00:45 41.5 °F /  5.3 °C 37.6 °F /  3.1 °C 30.2in /  1022.4hPa WNW 14.1mph /  22.7km/h 14mph /  22.5km/h 86% 0in /  0.0mm 0 W/m2
00:50 41.5 °F /  5.3 °C 37.4 °F /  3 °C 30.2in /  1022.4hPa WNW 6.9mph /  11.1km/h 9mph /  14.5km/h 85% 0in /  0.0mm 0 W/m2
00:55 41.5 °F /  5.3 °C 37.4 °F /  3 °C 30.2in /  1022.7hPa WSW 6.9mph /  11.1km/h 11mph /  17.7km/h 85% 0in /  0.0mm 0 W/m2
01:00 41.5 °F /  5.3 °C 37.4 °F /  3 °C 30.2in /  1022.7hPa WSW 4.9mph /  7.9km/h 9mph /  14.5km/h 85% 0in /  0.0mm 0 W/m2
01:05 41.4 °F /  5.2 °C 36.9 °F /  2.7 °C 30.2in /  1022.7hPa West 4mph /  6.4km/h 10mph /  16.1km/h 84% 0in /  0.0mm 0 W/m2
01:10 41.4 °F /  5.2 °C 36.9 °F /  2.7 °C 30.2in /  1023.0hPa SW 4mph /  6.4km/h 11mph /  17.7km/h 84% 0in /  0.0mm 0 W/m2
01:15 41.4 °F /  5.2 °C 36.9 °F /  2.7 °C 30.2in /  1023.0hPa SW 4.9mph /  7.9km/h 10mph /  16.1km/h 84% 0in /  0.0mm 0 W/m2
01:20 41.2 °F /  5.1 °C 36.7 °F /  2.6 °C 30.2in /  1023.4hPa SW 4mph /  6.4km/h 11mph /  17.7km/h 84% 0in /  0.0mm 0 W/m2
01:25 41.2 °F /  5.1 °C 36.7 °F /  2.6 °C 30.2in /  1023.4hPa WNW 8.9mph /  14.3km/h 19mph /  30.6km/h 84% 0in /  0.0mm 0 W/m2
01:30 41.2 °F /  5.1 °C 36.7 °F /  2.6 °C 30.2in /  1023.4hPa WNW 6.9mph /  11.1km/h 10mph /  16.1km/h 84% 0in /  0.0mm 0 W/m2
01:35 41.2 °F /  5.1 °C 36.7 °F /  2.6 °C 30.2in /  1023.7hPa SW 8.9mph /  14.3km/h 19mph /  30.6km/h 84% 0in /  0.0mm 0 W/m2
01:40 41.2 °F /  5.1 °C 36.7 °F /  2.6 °C 30.2in /  1023.7hPa West 6.9mph /  11.1km/h 13mph /  20.9km/h 84% 0in /  0.0mm 0 W/m2
01:45 41 °F /  5 °C 36.9 °F /  2.7 °C 30.2in /  1023.7hPa WNW 8.1mph /  13km/h 11mph /  17.7km/h 85% 0in /  0.0mm 0 W/m2
01:50 40.8 °F /  4.9 °C 36.3 °F /  2.4 °C 30.2in /  1023.7hPa WSW 0.9mph /  1.4km/h 8mph /  12.9km/h 84% 0in /  0.0mm 0 W/m2
01:55 40.8 °F /  4.9 °C 36.7 °F /  2.6 °C 30.2in /  1024.0hPa West 8.1mph /  13km/h 9mph /  14.5km/h 85% 0in /  0.0mm 0 W/m2
02:00 40.5 °F /  4.7 °C 36.3 °F /  2.4 °C 30.2in /  1024.0hPa West 2.9mph /  4.7km/h 6mph /  9.7km/h 85% 0in /  0.0mm 0 W/m2
02:05 40.3 °F /  4.6 °C 36.1 °F /  2.3 °C 30.2in /  1024.0hPa WSW 2.9mph /  4.7km/h 12mph /  19.3km/h 85% 0in /  0.0mm 0 W/m2
02:10 39.9 °F /  4.4 °C 36.1 °F /  2.3 °C 30.2in /  1024.0hPa West 2.9mph /  4.7km/h 7mph /  11.3km/h 86% 0in /  0.0mm 0 W/m2
02:15 39.7 °F /  4.3 °C 36 °F /  2.2 °C 30.2in /  1024.0hPa West 4mph /  6.4km/h 12mph /  19.3km/h 86% 0in /  0.0mm 0 W/m2
02:20 39.7 °F /  4.3 °C 36 °F /  2.2 °C 30.3in /  1024.4hPa WSW 6.9mph /  11.1km/h 12mph /  19.3km/h 86% 0in /  0.0mm 0 W/m2
02:25 39.7 °F /  4.3 °C 36 °F /  2.2 °C 30.3in /  1024.4hPa West 10.1mph /  16.3km/h 11mph /  17.7km/h 86% 0in /  0.0mm 0 W/m2
02:30 39.6 °F /  4.2 °C 35.8 °F /  2.1 °C 30.3in /  1024.4hPa WSW 2.9mph /  4.7km/h 7mph /  11.3km/h 86% 0in /  0.0mm 0 W/m2
02:35 39.4 °F /  4.1 °C 35.8 °F /  2.1 °C 30.3in /  1024.7hPa West 6.9mph /  11.1km/h 10mph /  16.1km/h 87% 0in /  0.0mm 0 W/m2
02:40 39.2 °F /  4 °C 35.6 °F /  2 °C 30.3in /  1024.7hPa West 8.1mph /  13km/h 11mph /  17.7km/h 87% 0in /  0.0mm 0 W/m2
02:45 39.2 °F /  4 °C 35.6 °F /  2 °C 30.3in /  1024.7hPa WSW 4mph /  6.4km/h 11mph /  17.7km/h 87% 0in /  0.0mm 0 W/m2
02:50 39 °F /  3.9 °C 35.4 °F /  1.9 °C 30.3in /  1024.7hPa West 6mph /  9.7km/h 9mph /  14.5km/h 87% 0in /  0.0mm 0 W/m2
02:55 39 °F /  3.9 °C 35.4 °F /  1.9 °C 30.3in /  1024.7hPa West 4mph /  6.4km/h 15mph /  24.1km/h 87% 0in /  0.0mm 0 W/m2
03:01 38.8 °F /  3.8 °C 35.2 °F /  1.8 °C 30.3in /  1024.7hPa WNW 2mph /  3.2km/h 5mph /  8km/h 87% 0in /  0.0mm 0 W/m2
03:06 38.8 °F /  3.8 °C 35.2 °F /  1.8 °C 30.3in /  1024.7hPa West 2mph /  3.2km/h 15mph /  24.1km/h 87% 0in /  0.0mm 0 W/m2
03:11 38.7 °F /  3.7 °C 35.4 °F /  1.9 °C 30.3in /  1025.1hPa WSW 2.9mph /  4.7km/h 7mph /  11.3km/h 88% 0in /  0.0mm 0 W/m2
03:16 38.7 °F /  3.7 °C 35.4 °F /  1.9 °C 30.3in /  1025.1hPa SW 4mph /  6.4km/h 9mph /  14.5km/h 88% 0in /  0.0mm 0 W/m2
03:21 38.7 °F /  3.7 °C 35.8 °F /  2.1 °C 30.3in /  1025.1hPa West 8.1mph /  13km/h 8mph /  12.9km/h 89% 0in /  0.0mm 0 W/m2
03:26 38.5 °F /  3.6 °C 35.6 °F /  2 °C 30.3in /  1025.1hPa NW 2mph /  3.2km/h 9mph /  14.5km/h 89% 0in /  0.0mm 0 W/m2
03:31 38.5 °F /  3.6 °C 35.6 °F /  2 °C 30.3in /  1025.1hPa West 4mph /  6.4km/h 6mph /  9.7km/h 89% 0in /  0.0mm 0 W/m2
03:36 38.5 °F /  3.6 °C 35.8 °F /  2.1 °C 30.3in /  1025.4hPa West 0.9mph /  1.4km/h 8mph /  12.9km/h 90% 0in /  0.0mm 0 W/m2
03:41 38.3 °F /  3.5 °C 35.6 °F /  2 °C 30.3in /  1025.4hPa NW 4.9mph /  7.9km/h 5mph /  8km/h 90% 0in /  0.0mm 0 W/m2
03:46 38.1 °F /  3.4 °C 35.4 °F /  1.9 °C 30.3in /  1025.7hPa Calm   2mph /  3.2km/h 90% 0in /  0.0mm 0 W/m2
03:51 38.1 °F /  3.4 °C 35.4 °F /  1.9 °C 30.3in /  1025.7hPa West 2mph /  3.2km/h 3mph /  4.8km/h 90% 0in /  0.0mm 0 W/m2
03:56 37.9 °F /  3.3 °C 35.2 °F /  1.8 °C 30.3in /  1025.7hPa NW 4mph /  6.4km/h 8mph /  12.9km/h 90% 0in /  0.0mm 0 W/m2
04:01 37.9 °F /  3.3 °C 35.2 °F /  1.8 °C 30.3in /  1025.7hPa SW 2mph /  3.2km/h 3mph /  4.8km/h 90% 0in /  0.0mm 0 W/m2
04:06 37.8 °F /  3.2 °C 35.1 °F /  1.7 °C 30.3in /  1025.7hPa West 2.9mph /  4.7km/h 8mph /  12.9km/h 90% 0in /  0.0mm 0 W/m2
04:11 37.8 °F /  3.2 °C 35.4 °F /  1.9 °C 30.3in /  1025.7hPa SW 4.9mph /  7.9km/h 7mph /  11.3km/h 91% 0in /  0.0mm 0 W/m2
04:16 37.8 °F /  3.2 °C 35.4 °F /  1.9 °C 30.3in /  1026.1hPa West 2mph /  3.2km/h 4mph /  6.4km/h 91% 0in /  0.0mm 0 W/m2
04:21 37.8 °F /  3.2 °C 35.4 °F /  1.9 °C 30.3in /  1025.7hPa WSW 0.9mph /  1.4km/h 3mph /  4.8km/h 91% 0in /  0.0mm 0 W/m2
04:26 37.6 °F /  3.1 °C 35.2 °F /  1.8 °C 30.3in /  1025.7hPa West 2mph /  3.2km/h 3mph /  4.8km/h 91% 0in /  0.0mm 0 W/m2
04:31 37.4 °F /  3 °C 35.1 °F /  1.7 °C 30.3in /  1025.7hPa WSW 0.9mph /  1.4km/h 5mph /  8km/h 91% 0in /  0.0mm 0 W/m2
04:36 37.2 °F /  2.9 °C 34.9 °F /  1.6 °C 30.3in /  1025.7hPa Calm   2mph /  3.2km/h 91% 0in /  0.0mm 0 W/m2
04:41 37.2 °F /  2.9 °C 34.9 °F /  1.6 °C 30.3in /  1025.7hPa Calm   5mph /  8km/h 91% 0in /  0.0mm 0 W/m2
04:46 37 °F /  2.8 °C 34.7 °F /  1.5 °C 30.3in /  1026.1hPa West 2mph /  3.2km/h 7mph /  11.3km/h 91% 0in /  0.0mm 0 W/m2
04:51 37 °F /  2.8 °C 34.7 °F /  1.5 °C 30.3in /  1026.1hPa West 4mph /  6.4km/h 9mph /  14.5km/h 91% 0in /  0.0mm 0 W/m2
04:56 37.2 °F /  2.9 °C 34.9 °F /  1.6 °C 30.3in /  1026.1hPa WSW 2.9mph /  4.7km/h 9mph /  14.5km/h 91% 0in /  0.0mm 0 W/m2
05:01 37.2 °F /  2.9 °C 34.9 °F /  1.6 °C 30.3in /  1026.4hPa West 0.9mph /  1.4km/h 4mph /  6.4km/h 91% 0in /  0.0mm 0 W/m2
05:06 37 °F /  2.8 °C 34.7 °F /  1.5 °C 30.3in /  1026.4hPa West 2.9mph /  4.7km/h 7mph /  11.3km/h 91% 0in /  0.0mm 0 W/m2
05:11 37 °F /  2.8 °C 34.7 °F /  1.5 °C 30.3in /  1026.4hPa West 4mph /  6.4km/h 5mph /  8km/h 91% 0in /  0.0mm 0 W/m2
05:16 37 °F /  2.8 °C 34.7 °F /  1.5 °C 30.3in /  1026.4hPa West 6mph /  9.7km/h 11mph /  17.7km/h 91% 0in /  0.0mm 0 W/m2
05:21 37 °F /  2.8 °C 34.7 °F /  1.5 °C 30.3in /  1026.8hPa WNW 4mph /  6.4km/h 8mph /  12.9km/h 91% 0in /  0.0mm 0 W/m2
05:26 37 °F /  2.8 °C 34.7 °F /  1.5 °C 30.3in /  1026.8hPa West 8.1mph /  13km/h 10mph /  16.1km/h 91% 0in /  0.0mm 0 W/m2
05:32 36.9 °F /  2.7 °C 34.5 °F /  1.4 °C 30.3in /  1026.8hPa WNW 2.9mph /  4.7km/h 7mph /  11.3km/h 91% 0in /  0.0mm 0 W/m2
05:37 36.9 °F /  2.7 °C 34.5 °F /  1.4 °C 30.3in /  1026.8hPa WNW 2.9mph /  4.7km/h 3mph /  4.8km/h 91% 0in /  0.0mm 0 W/m2
05:42 36.9 °F /  2.7 °C 34.5 °F /  1.4 °C 30.3in /  1027.1hPa West 2mph /  3.2km/h 4mph /  6.4km/h 91% 0in /  0.0mm 0 W/m2
05:47 36.9 °F /  2.7 °C 34.5 °F /  1.4 °C 30.3in /  1027.1hPa West 2.9mph /  4.7km/h 4mph /  6.4km/h 91% 0in /  0.0mm 0 W/m2
05:52 36.9 °F /  2.7 °C 34.5 °F /  1.4 °C 30.3in /  1027.1hPa WSW 2mph /  3.2km/h 8mph /  12.9km/h 91% 0in /  0.0mm 0 W/m2
05:57 36.9 °F /  2.7 °C 34.5 °F /  1.4 °C 30.3in /  1027.1hPa West 2.9mph /  4.7km/h 5mph /  8km/h 91% 0in /  0.0mm 0 W/m2
06:02 36.9 °F /  2.7 °C 34.5 °F /  1.4 °C 30.3in /  1027.1hPa West 6mph /  9.7km/h 7mph /  11.3km/h 91% 0in /  0.0mm 0 W/m2
06:07 36.7 °F /  2.6 °C 34.3 °F /  1.3 °C 30.3in /  1027.1hPa West 6.9mph /  11.1km/h 9mph /  14.5km/h 91% 0in /  0.0mm 0 W/m2
06:12 36.7 °F /  2.6 °C 34.3 °F /  1.3 °C 30.3in /  1027.1hPa West 4mph /  6.4km/h 8mph /  12.9km/h 91% 0in /  0.0mm 0 W/m2
06:17 36.7 °F /  2.6 °C 34.5 °F /  1.4 °C 30.3in /  1027.4hPa West 8.1mph /  13km/h 9mph /  14.5km/h 92% 0in /  0.0mm 0 W/m2
06:22 36.7 °F /  2.6 °C 34.5 °F /  1.4 °C 30.3in /  1027.4hPa West 4mph /  6.4km/h 11mph /  17.7km/h 92% 0in /  0.0mm 0 W/m2
06:27 36.7 °F /  2.6 °C 34.5 °F /  1.4 °C 30.3in /  1027.4hPa West 8.1mph /  13km/h 12mph /  19.3km/h 92% 0in /  0.0mm 0 W/m2
06:32 36.7 °F /  2.6 °C 34.5 °F /  1.4 °C 30.3in /  1027.4hPa WSW 8.1mph /  13km/h 10mph /  16.1km/h 92% 0in /  0.0mm 0 W/m2
06:37 36.7 °F /  2.6 °C 34.5 °F /  1.4 °C 30.3in /  1027.4hPa WSW 4.9mph /  7.9km/h 10mph /  16.1km/h 92% 0in /  0.0mm 0 W/m2
06:43 36.5 °F /  2.5 °C 34.3 °F /  1.3 °C 30.3in /  1027.4hPa West 2mph /  3.2km/h 8mph /  12.9km/h 92% 0in /  0.0mm 0 W/m2
06:48 36.5 °F /  2.5 °C 34.3 °F /  1.3 °C 30.3in /  1027.4hPa North 2mph /  3.2km/h 11mph /  17.7km/h 92% 0in /  0.0mm 0 W/m2
06:53 36.5 °F /  2.5 °C 34.3 °F /  1.3 °C 30.3in /  1027.4hPa WSW 4.9mph /  7.9km/h 10mph /  16.1km/h 92% 0in /  0.0mm 0 W/m2
06:58 36.5 °F /  2.5 °C 34.3 °F /  1.3 °C 30.3in /  1027.4hPa WSW 4.9mph /  7.9km/h 8mph /  12.9km/h 92% 0in /  0.0mm 0 W/m2
07:03 36.5 °F /  2.5 °C 34.3 °F /  1.3 °C 30.4in /  1027.8hPa West 2mph /  3.2km/h 8mph /  12.9km/h 92% 0in /  0.0mm 0 W/m2
07:08 36.3 °F /  2.4 °C 34.2 °F /  1.2 °C 30.4in /  1027.8hPa West 6mph /  9.7km/h 9mph /  14.5km/h 92% 0in /  0.0mm 0 W/m2
07:13 36.3 °F /  2.4 °C 34.5 °F /  1.4 °C 30.4in /  1027.8hPa WNW 2mph /  3.2km/h 9mph /  14.5km/h 93% 0in /  0.0mm 0 W/m2
07:18 36.3 °F /  2.4 °C 34.5 °F /  1.4 °C 30.4in /  1027.8hPa West 8.1mph /  13km/h 10mph /  16.1km/h 93% 0in /  0.0mm 0 W/m2
07:23 36.3 °F /  2.4 °C 34.2 °F /  1.2 °C 30.4in /  1028.1hPa WNW 4.9mph /  7.9km/h 8mph /  12.9km/h 92% 0in /  0.0mm 0 W/m2
07:28 36.3 °F /  2.4 °C 34.5 °F /  1.4 °C 30.4in /  1028.1hPa WNW 4mph /  6.4km/h 6mph /  9.7km/h 93% 0in /  0.0mm 0 W/m2
07:33 36.3 °F /  2.4 °C 34.5 °F /  1.4 °C 30.4in /  1028.1hPa SW 6mph /  9.7km/h 7mph /  11.3km/h 93% 0in /  0.0mm 0 W/m2
07:38 36.3 °F /  2.4 °C 34.5 °F /  1.4 °C 30.4in /  1028.1hPa WSW 2.9mph /  4.7km/h 7mph /  11.3km/h 93% 0in /  0.0mm 5 W/m2
07:43 36.3 °F /  2.4 °C 34.5 °F /  1.4 °C 30.4in /  1028.5hPa WSW 2.9mph /  4.7km/h 9mph /  14.5km/h 93% 0in /  0.0mm 11 W/m2
07:48 36.3 °F /  2.4 °C 34.5 °F /  1.4 °C 30.4in /  1028.5hPa WSW 6.9mph /  11.1km/h 8mph /  12.9km/h 93% 0in /  0.0mm 14 W/m2
07:54 36.3 °F /  2.4 °C 34.5 °F /  1.4 °C 30.4in /  1028.5hPa WSW 4.9mph /  7.9km/h 9mph /  14.5km/h 93% 0in /  0.0mm 18 W/m2
07:59 36.3 °F /  2.4 °C 34.5 °F /  1.4 °C 30.4in /  1028.5hPa West 4mph /  6.4km/h 14mph /  22.5km/h 93% 0in /  0.0mm 18 W/m2
08:04 36.3 °F /  2.4 °C 34.5 °F /  1.4 °C 30.4in /  1028.8hPa WSW 6.9mph /  11.1km/h 9mph /  14.5km/h 93% 0in /  0.0mm 23 W/m2
08:09 36.3 °F /  2.4 °C 34.5 °F /  1.4 °C 30.4in /  1028.8hPa WSW 4mph /  6.4km/h 10mph /  16.1km/h 93% 0in /  0.0mm 32 W/m2
08:14 36.5 °F /  2.5 °C 34.7 °F /  1.5 °C 30.4in /  1028.8hPa WNW 4mph /  6.4km/h 4mph /  6.4km/h 93% 0in /  0.0mm 37 W/m2
08:19 36.5 °F /  2.5 °C 34.7 °F /  1.5 °C 30.4in /  1028.8hPa WNW 4.9mph /  7.9km/h 7mph /  11.3km/h 93% 0in /  0.0mm 46 W/m2
08:24 36.7 °F /  2.6 °C 34.9 °F /  1.6 °C 30.4in /  1028.8hPa West 2.9mph /  4.7km/h 9mph /  14.5km/h 93% 0in /  0.0mm 60 W/m2
08:29 36.9 °F /  2.7 °C 35.1 °F /  1.7 °C 30.4in /  1028.8hPa SW 4mph /  6.4km/h 9mph /  14.5km/h 93% 0in /  0.0mm 70 W/m2
08:34 36.9 °F /  2.7 °C 35.1 °F /  1.7 °C 30.4in /  1029.1hPa WNW 2mph /  3.2km/h 9mph /  14.5km/h 93% 0in /  0.0mm 88 W/m2
08:39 37 °F /  2.8 °C 35.2 °F /  1.8 °C 30.4in /  1029.1hPa WNW 2mph /  3.2km/h 4mph /  6.4km/h 93% 0in /  0.0mm 116 W/m2
08:44 37 °F /  2.8 °C 34.9 °F /  1.6 °C 30.4in /  1029.1hPa West 6.9mph /  11.1km/h 9mph /  14.5km/h 92% 0in /  0.0mm 98 W/m2
08:49 37.2 °F /  2.9 °C 35.1 °F /  1.7 °C 30.4in /  1029.5hPa West 4mph /  6.4km/h 10mph /  16.1km/h 92% 0in /  0.0mm 93 W/m2
08:54 37.2 °F /  2.9 °C 35.1 °F /  1.7 °C 30.4in /  1029.1hPa West 4mph /  6.4km/h 4mph /  6.4km/h 92% 0in /  0.0mm 81 W/m2
08:59 37.4 °F /  3 °C 35.2 °F /  1.8 °C 30.4in /  1029.5hPa WNW 2.9mph /  4.7km/h 4mph /  6.4km/h 92% 0in /  0.0mm 83 W/m2
09:04 37.6 °F /  3.1 °C 35.4 °F /  1.9 °C 30.4in /  1029.1hPa West 6mph /  9.7km/h 6mph /  9.7km/h 92% 0in /  0.0mm 91 W/m2
09:09 37.6 °F /  3.1 °C 35.4 °F /  1.9 °C 30.4in /  1029.5hPa West 6.9mph /  11.1km/h 8mph /  12.9km/h 92% 0in /  0.0mm 90 W/m2
09:14 37.6 °F /  3.1 °C 35.4 °F /  1.9 °C 30.4in /  1029.5hPa West 2mph /  3.2km/h 10mph /  16.1km/h 92% 0in /  0.0mm 83 W/m2
09:19 37.6 °F /  3.1 °C 35.4 °F /  1.9 °C 30.4in /  1029.5hPa WNW 2mph /  3.2km/h 9mph /  14.5km/h 92% 0in /  0.0mm 81 W/m2
09:24 37.6 °F /  3.1 °C 35.4 °F /  1.9 °C 30.4in /  1029.5hPa WNW 6mph /  9.7km/h 9mph /  14.5km/h 92% 0in /  0.0mm 95 W/m2
09:29 37.6 °F /  3.1 °C 35.4 °F /  1.9 °C 30.4in /  1029.5hPa West 0.9mph /  1.4km/h 3mph /  4.8km/h 92% 0in /  0.0mm 120 W/m2
09:34 37.6 °F /  3.1 °C 35.4 °F /  1.9 °C 30.4in /  1029.5hPa WSW 2mph /  3.2km/h 4mph /  6.4km/h 92% 0in /  0.0mm 155 W/m2
09:39 37.8 °F /  3.2 °C 35.6 °F /  2 °C 30.4in /  1029.5hPa WSW 0.9mph /  1.4km/h 4mph /  6.4km/h 92% 0in /  0.0mm 111 W/m2
09:44 37.9 °F /  3.3 °C 35.6 °F /  2 °C 30.4in /  1029.5hPa West 2.9mph /  4.7km/h 5mph /  8km/h 91% 0in /  0.0mm 116 W/m2
09:49 37.9 °F /  3.3 °C 35.8 °F /  2.1 °C 30.4in /  1029.5hPa Calm   6mph /  9.7km/h 92% 0in /  0.0mm 171 W/m2
09:54 38.3 °F /  3.5 °C 36.1 °F /  2.3 °C 30.4in /  1029.5hPa West 2.9mph /  4.7km/h 3mph /  4.8km/h 92% 0in /  0.0mm 225 W/m2
09:59 38.7 °F /  3.7 °C 36.3 °F /  2.4 °C 30.4in /  1029.5hPa Calm   3mph /  4.8km/h 91% 0in /  0.0mm 236 W/m2
10:04 38.8 °F /  3.8 °C 36.5 °F /  2.5 °C 30.4in /  1029.5hPa NW 2mph /  3.2km/h 3mph /  4.8km/h 91% 0in /  0.0mm 243 W/m2
10:09 39.4 °F /  4.1 °C 36.7 °F /  2.6 °C 30.4in /  1029.8hPa West 4mph /  6.4km/h 8mph /  12.9km/h 90% 0in /  0.0mm 267 W/m2
10:14 39.6 °F /  4.2 °C 36.9 °F /  2.7 °C 30.4in /  1029.8hPa WSW 6mph /  9.7km/h 10mph /  16.1km/h 90% 0in /  0.0mm 230 W/m2
10:19 39.9 °F /  4.4 °C 36.9 °F /  2.7 °C 30.4in /  1029.8hPa West 2.9mph /  4.7km/h 3mph /  4.8km/h 89% 0in /  0.0mm 246 W/m2
10:24 40.3 °F /  4.6 °C 37.2 °F /  2.9 °C 30.4in /  1029.8hPa WNW 2.9mph /  4.7km/h 10mph /  16.1km/h 89% 0in /  0.0mm 267 W/m2
10:29 40.5 °F /  4.7 °C 37.2 °F /  2.9 °C 30.4in /  1030.1hPa West 2mph /  3.2km/h 10mph /  16.1km/h 88% 0in /  0.0mm 264 W/m2
10:34 40.5 °F /  4.7 °C 37.2 °F /  2.9 °C 30.4in /  1030.1hPa WNW 2mph /  3.2km/h 7mph /  11.3km/h 88% 0in /  0.0mm 206 W/m2
10:39 40.8 °F /  4.9 °C 37.6 °F /  3.1 °C 30.4in /  1030.1hPa NW 2.9mph /  4.7km/h 10mph /  16.1km/h 88% 0in /  0.0mm 211 W/m2
10:44 41 °F /  5 °C 37.4 °F /  3 °C 30.4in /  1030.1hPa West 2.9mph /  4.7km/h 9mph /  14.5km/h 87% 0in /  0.0mm 171 W/m2
10:49 41.2 °F /  5.1 °C 37.4 °F /  3 °C 30.4in /  1030.1hPa WSW 2.9mph /  4.7km/h 9mph /  14.5km/h 86% 0in /  0.0mm 155 W/m2
10:54 41.2 °F /  5.1 °C 37.4 °F /  3 °C 30.4in /  1030.1hPa NNW 6mph /  9.7km/h 6mph /  9.7km/h 86% 0in /  0.0mm 190 W/m2
10:59 41.4 °F /  5.2 °C 37.6 °F /  3.1 °C 30.4in /  1030.1hPa WNW 2mph /  3.2km/h 9mph /  14.5km/h 86% 0in /  0.0mm 265 W/m2
11:04 41.5 °F /  5.3 °C 37.6 °F /  3.1 °C 30.4in /  1030.1hPa SW 2mph /  3.2km/h 5mph /  8km/h 86% 0in /  0.0mm 278 W/m2
11:09 41.7 °F /  5.4 °C 37.8 °F /  3.2 °C 30.4in /  1030.1hPa West 2.9mph /  4.7km/h 6mph /  9.7km/h 86% 0in /  0.0mm 373 W/m2
11:14 42.1 °F /  5.6 °C 37.9 °F /  3.3 °C 30.4in /  1030.1hPa WNW 2mph /  3.2km/h 9mph /  14.5km/h 85% 0in /  0.0mm 318 W/m2
11:19 42.4 °F /  5.8 °C 38.3 °F /  3.5 °C 30.4in /  1030.1hPa West 2.9mph /  4.7km/h 11mph /  17.7km/h 85% 0in /  0.0mm 272 W/m2
11:24 42.6 °F /  5.9 °C 38.1 °F /  3.4 °C 30.4in /  1030.1hPa WSW 2.9mph /  4.7km/h 8mph /  12.9km/h 84% 0in /  0.0mm 285 W/m2
11:29 42.8 °F /  6 °C 37.9 °F /  3.3 °C 30.4in /  1030.1hPa NW 2.9mph /  4.7km/h 3mph /  4.8km/h 83% 0in /  0.0mm 148 W/m2
11:34 43.2 °F /  6.2 °C 38.3 °F /  3.5 °C 30.4in /  1030.1hPa West 2.9mph /  4.7km/h 8mph /  12.9km/h 83% 0in /  0.0mm 171 W/m2
11:39 43.3 °F /  6.3 °C 38.5 °F /  3.6 °C 30.4in /  1030.1hPa WNW 4mph /  6.4km/h 4mph /  6.4km/h 83% 0in /  0.0mm 127 W/m2
11:44 43.5 °F /  6.4 °C 38.5 °F /  3.6 °C 30.4in /  1030.5hPa WNW 4.9mph /  7.9km/h 10mph /  16.1km/h 82% 0in /  0.0mm 123 W/m2
11:50 43.5 °F /  6.4 °C 38.5 °F /  3.6 °C 30.4in /  1030.5hPa WNW 4mph /  6.4km/h 8mph /  12.9km/h 82% 0in /  0.0mm 163 W/m2
11:55 43.3 °F /  6.3 °C 37.9 °F /  3.3 °C 30.4in /  1030.5hPa West 0.9mph /  1.4km/h 3mph /  4.8km/h 81% 0in /  0.0mm 107 W/m2
12:00 43.3 °F /  6.3 °C 37.9 °F /  3.3 °C 30.4in /  1030.5hPa WSW 2mph /  3.2km/h 8mph /  12.9km/h 81% 0in /  0.0mm 118 W/m2
12:05 43.5 °F /  6.4 °C 38.5 °F /  3.6 °C 30.4in /  1030.5hPa SE 0.9mph /  1.4km/h 2mph /  3.2km/h 82% 0in /  0.0mm 276 W/m2
12:10 43.9 °F /  6.6 °C 38.5 °F /  3.6 °C 30.4in /  1030.5hPa SSW 4mph /  6.4km/h 6mph /  9.7km/h 81% 0in /  0.0mm 497 W/m2
12:15 44.6 °F /  7 °C 39.2 °F /  4 °C 30.4in /  1030.5hPa West 2mph /  3.2km/h 6mph /  9.7km/h 81% 0in /  0.0mm 548 W/m2
12:20 45.3 °F /  7.4 °C 39.6 °F /  4.2 °C 30.4in /  1030.1hPa WNW 4.9mph /  7.9km/h 6mph /  9.7km/h 80% 0in /  0.0mm 571 W/m2
12:25 45.7 °F /  7.6 °C 39.6 °F /  4.2 °C 30.4in /  1030.1hPa WNW 4mph /  6.4km/h 6mph /  9.7km/h 79% 0in /  0.0mm 269 W/m2
12:30 45.9 °F /  7.7 °C 39 °F /  3.9 °C 30.4in /  1030.1hPa WNW 0.9mph /  1.4km/h 5mph /  8km/h 77% 0in /  0.0mm 181 W/m2
12:35 45.7 °F /  7.6 °C 38.8 °F /  3.8 °C 30.4in /  1030.1hPa West 2mph /  3.2km/h 3mph /  4.8km/h 77% 0in /  0.0mm 160 W/m2
12:40 45.7 °F /  7.6 °C 38.8 °F /  3.8 °C 30.4in /  1030.1hPa WSW 6.9mph /  11.1km/h 10mph /  16.1km/h 77% 0in /  0.0mm 192 W/m2
12:45 45.7 °F /  7.6 °C 38.5 °F /  3.6 °C 30.4in /  1030.1hPa WNW 2.9mph /  4.7km/h 4mph /  6.4km/h 76% 0in /  0.0mm 125 W/m2
12:50 45.3 °F /  7.4 °C 37.9 °F /  3.3 °C 30.4in /  1030.1hPa West 2mph /  3.2km/h 6mph /  9.7km/h 75% 0in /  0.0mm 172 W/m2
12:55 45.3 °F /  7.4 °C 37.9 °F /  3.3 °C 30.4in /  1030.1hPa WNW 2mph /  3.2km/h 3mph /  4.8km/h 75% 0in /  0.0mm 137 W/m2
13:00 45.3 °F /  7.4 °C 37.9 °F /  3.3 °C 30.4in /  1030.1hPa WSW 2mph /  3.2km/h 4mph /  6.4km/h 75% 0in /  0.0mm 171 W/m2
13:05 45.3 °F /  7.4 °C 37.9 °F /  3.3 °C 30.4in /  1030.1hPa NNW 4.9mph /  7.9km/h 9mph /  14.5km/h 75% 0in /  0.0mm 322 W/m2
13:10 45.9 °F /  7.7 °C 38.3 °F /  3.5 °C 30.4in /  1030.1hPa SSW 2mph /  3.2km/h 5mph /  8km/h 75% 0in /  0.0mm 352 W/m2
13:15 46 °F /  7.8 °C 38.3 °F /  3.5 °C 30.4in /  1030.1hPa SSE 2.9mph /  4.7km/h 9mph /  14.5km/h 74% 0in /  0.0mm 311 W/m2
13:20 46.2 °F /  7.9 °C 38.5 °F /  3.6 °C 30.4in /  1030.1hPa NW 6mph /  9.7km/h 6mph /  9.7km/h 74% 0in /  0.0mm 301 W/m2
13:25 46.6 °F /  8.1 °C 38.5 °F /  3.6 °C 30.4in /  1030.1hPa Calm   5mph /  8km/h 73% 0in /  0.0mm 267 W/m2
13:30 46.6 °F /  8.1 °C 38.1 °F /  3.4 °C 30.4in /  1029.8hPa WSW 4mph /  6.4km/h 7mph /  11.3km/h 72% 0in /  0.0mm 216 W/m2
13:35 46.2 °F /  7.9 °C 37.8 °F /  3.2 °C 30.4in /  1029.8hPa West 2.9mph /  4.7km/h 8mph /  12.9km/h 72% 0in /  0.0mm 200 W/m2
13:40 46.2 °F /  7.9 °C 37.4 °F /  3 °C 30.4in /  1029.8hPa West 2.9mph /  4.7km/h 7mph /  11.3km/h 71% 0in /  0.0mm 213 W/m2
13:45 46.4 °F /  8 °C 37.6 °F /  3.1 °C 30.4in /  1029.8hPa WSW 4mph /  6.4km/h 9mph /  14.5km/h 71% 0in /  0.0mm 220 W/m2
13:50 46.4 °F /  8 °C 37.2 °F /  2.9 °C 30.4in /  1029.8hPa North 0.9mph /  1.4km/h 11mph /  17.7km/h 70% 0in /  0.0mm 239 W/m2
13:55 46.6 °F /  8.1 °C 37.4 °F /  3 °C 30.4in /  1029.8hPa WNW 2.9mph /  4.7km/h 8mph /  12.9km/h 70% 0in /  0.0mm 302 W/m2
14:00 46.6 °F /  8.1 °C 37.8 °F /  3.2 °C 30.4in /  1029.5hPa WNW 4.9mph /  7.9km/h 7mph /  11.3km/h 71% 0in /  0.0mm 211 W/m2
14:05 46.8 °F /  8.2 °C 36.7 °F /  2.6 °C 30.4in /  1029.5hPa WNW 6.9mph /  11.1km/h 12mph /  19.3km/h 68% 0in /  0.0mm 209 W/m2
14:10 46.8 °F /  8.2 °C 36.7 °F /  2.6 °C 30.4in /  1029.5hPa WNW 4mph /  6.4km/h 13mph /  20.9km/h 68% 0in /  0.0mm 246 W/m2
14:15 46.8 °F /  8.2 °C 37.6 °F /  3.1 °C 30.4in /  1029.5hPa SSW 4mph /  6.4km/h 5mph /  8km/h 70% 0in /  0.0mm 213 W/m2
14:20 46.6 °F /  8.1 °C 37 °F /  2.8 °C 30.4in /  1029.5hPa WNW 2mph /  3.2km/h 11mph /  17.7km/h 69% 0in /  0.0mm 179 W/m2
14:25 46.8 °F /  8.2 °C 37.2 °F /  2.9 °C 30.4in /  1029.5hPa WSW 2.9mph /  4.7km/h 10mph /  16.1km/h 69% 0in /  0.0mm 183 W/m2
14:30 46.6 °F /  8.1 °C 36.5 °F /  2.5 °C 30.4in /  1029.5hPa West 8.1mph /  13km/h 11mph /  17.7km/h 68% 0in /  0.0mm 214 W/m2
14:35 46.6 °F /  8.1 °C 36.5 °F /  2.5 °C 30.4in /  1029.5hPa West 4mph /  6.4km/h 9mph /  14.5km/h 68% 0in /  0.0mm 229 W/m2
14:40 46.6 °F /  8.1 °C 36.5 °F /  2.5 °C 30.4in /  1029.5hPa NW 4.9mph /  7.9km/h 11mph /  17.7km/h 68% 0in /  0.0mm 200 W/m2
14:45 46.6 °F /  8.1 °C 36.1 °F /  2.3 °C 30.4in /  1029.5hPa WNW 8.9mph /  14.3km/h 12mph /  19.3km/h 67% 0in /  0.0mm 165 W/m2
14:50 46.6 °F /  8.1 °C 36.5 °F /  2.5 °C 30.4in /  1029.5hPa WNW 8.9mph /  14.3km/h 10mph /  16.1km/h 68% 0in /  0.0mm 160 W/m2
14:55 46.6 °F /  8.1 °C 37 °F /  2.8 °C 30.4in /  1029.1hPa West 6.9mph /  11.1km/h 9mph /  14.5km/h 69% 0in /  0.0mm 179 W/m2
15:00 46.4 °F /  8 °C 36.9 °F /  2.7 °C 30.4in /  1029.1hPa WNW 2mph /  3.2km/h 10mph /  16.1km/h 69% 0in /  0.0mm 163 W/m2
15:05 46.4 °F /  8 °C 36.5 °F /  2.5 °C 30.4in /  1029.1hPa West 4mph /  6.4km/h 8mph /  12.9km/h 68% 0in /  0.0mm 162 W/m2
15:10 46.6 °F /  8.1 °C 37 °F /  2.8 °C 30.4in /  1029.1hPa NW 2mph /  3.2km/h 6mph /  9.7km/h 69% 0in /  0.0mm 176 W/m2
15:15 46.6 °F /  8.1 °C 36.5 °F /  2.5 °C 30.4in /  1029.1hPa WSW 4mph /  6.4km/h 10mph /  16.1km/h 68% 0in /  0.0mm 135 W/m2
15:20 46.8 °F /  8.2 °C 36.7 °F /  2.6 °C 30.4in /  1029.1hPa WNW 2.9mph /  4.7km/h 5mph /  8km/h 68% 0in /  0.0mm 125 W/m2
15:25 46.8 °F /  8.2 °C 36.3 °F /  2.4 °C 30.4in /  1029.1hPa WNW 2.9mph /  4.7km/h 8mph /  12.9km/h 67% 0in /  0.0mm 121 W/m2
15:30 46.8 °F /  8.2 °C 36.3 °F /  2.4 °C 30.4in /  1029.1hPa NW 0.9mph /  1.4km/h 4mph /  6.4km/h 67% 0in /  0.0mm 134 W/m2
15:35 46.8 °F /  8.2 °C 36 °F /  2.2 °C 30.4in /  1029.1hPa WNW 2.9mph /  4.7km/h 9mph /  14.5km/h 66% 0in /  0.0mm 142 W/m2
15:40 46.8 °F /  8.2 °C 36 °F /  2.2 °C 30.4in /  1029.1hPa Calm   6mph /  9.7km/h 66% 0in /  0.0mm 142 W/m2
15:45 46.9 °F /  8.3 °C 36.1 °F /  2.3 °C 30.4in /  1029.1hPa West 2mph /  3.2km/h 7mph /  11.3km/h 66% 0in /  0.0mm 125 W/m2
15:50 46.8 °F /  8.2 °C 35.6 °F /  2 °C 30.4in /  1029.1hPa WNW 4mph /  6.4km/h 10mph /  16.1km/h 65% 0in /  0.0mm 134 W/m2
15:55 46.8 °F /  8.2 °C 36 °F /  2.2 °C 30.4in /  1029.1hPa WNW 2mph /  3.2km/h 6mph /  9.7km/h 66% 0in /  0.0mm 135 W/m2
16:00 46.8 °F /  8.2 °C 36 °F /  2.2 °C 30.4in /  1029.1hPa WSW 0.9mph /  1.4km/h 10mph /  16.1km/h 66% 0in /  0.0mm 135 W/m2
16:05 46.8 °F /  8.2 °C 36 °F /  2.2 °C 30.4in /  1029.1hPa NNW 2.9mph /  4.7km/h 8mph /  12.9km/h 66% 0in /  0.0mm 128 W/m2
16:10 46.8 °F /  8.2 °C 36 °F /  2.2 °C 30.4in /  1029.1hPa WNW 4mph /  6.4km/h 10mph /  16.1km/h 66% 0in /  0.0mm 135 W/m2
16:15 46.8 °F /  8.2 °C 35.6 °F /  2 °C 30.4in /  1029.1hPa NW 2mph /  3.2km/h 3mph /  4.8km/h 65% 0in /  0.0mm 123 W/m2
16:20 46.9 °F /  8.3 °C 36.1 °F /  2.3 °C 30.4in /  1028.8hPa SSW 2.9mph /  4.7km/h 5mph /  8km/h 66% 0in /  0.0mm 120 W/m2
16:25 46.9 °F /  8.3 °C 35.8 °F /  2.1 °C 30.4in /  1028.8hPa NW 2.9mph /  4.7km/h 8mph /  12.9km/h 65% 0in /  0.0mm 128 W/m2
16:30 46.9 °F /  8.3 °C 35.8 °F /  2.1 °C 30.4in /  1028.8hPa North 0.9mph /  1.4km/h 3mph /  4.8km/h 65% 0in /  0.0mm 111 W/m2
16:35 46.9 °F /  8.3 °C 36.1 °F /  2.3 °C 30.4in /  1028.8hPa NW 4mph /  6.4km/h 7mph /  11.3km/h 66% 0in /  0.0mm 90 W/m2
16:40 46.8 °F /  8.2 °C 36.3 °F /  2.4 °C 30.4in /  1028.8hPa WNW 2mph /  3.2km/h 3mph /  4.8km/h 67% 0in /  0.0mm 86 W/m2
16:45 46.8 °F /  8.2 °C 36 °F /  2.2 °C 30.4in /  1028.8hPa Calm   6mph /  9.7km/h 66% 0in /  0.0mm 77 W/m2
16:51 46.6 °F /  8.1 °C 35.8 °F /  2.1 °C 30.4in /  1028.8hPa WNW 4mph /  6.4km/h 8mph /  12.9km/h 66% 0in /  0.0mm 69 W/m2
16:56 46.6 °F /  8.1 °C 35.8 °F /  2.1 °C 30.4in /  1028.8hPa NW 2mph /  3.2km/h 7mph /  11.3km/h 66% 0in /  0.0mm 65 W/m2
17:01 46.6 °F /  8.1 °C 36.1 °F /  2.3 °C 30.4in /  1028.8hPa NNW 2.9mph /  4.7km/h 8mph /  12.9km/h 67% 0in /  0.0mm 56 W/m2
17:06 46.4 °F /  8 °C 36 °F /  2.2 °C 30.4in /  1028.8hPa West 2mph /  3.2km/h 5mph /  8km/h 67% 0in /  0.0mm 53 W/m2
17:11 46.2 °F /  7.9 °C 36 °F /  2.2 °C 30.4in /  1029.1hPa WNW 2.9mph /  4.7km/h 6mph /  9.7km/h 67% 0in /  0.0mm 51 W/m2
17:16 46.2 °F /  7.9 °C 36.3 °F /  2.4 °C 30.4in /  1028.8hPa SW 2.9mph /  4.7km/h 4mph /  6.4km/h 68% 0in /  0.0mm 46 W/m2
17:21 46 °F /  7.8 °C 36.1 °F /  2.3 °C 30.4in /  1028.8hPa NW 2.9mph /  4.7km/h 4mph /  6.4km/h 68% 0in /  0.0mm 40 W/m2
17:26 46 °F /  7.8 °C 36.1 °F /  2.3 °C 30.4in /  1028.8hPa West 8.1mph /  13km/h 8mph /  12.9km/h 68% 0in /  0.0mm 33 W/m2
17:31 45.9 °F /  7.7 °C 36 °F /  2.2 °C 30.4in /  1028.8hPa West 4mph /  6.4km/h 8mph /  12.9km/h 68% 0in /  0.0mm 30 W/m2
17:36 45.9 °F /  7.7 °C 36 °F /  2.2 °C 30.4in /  1028.8hPa Calm   2mph /  3.2km/h 68% 0in /  0.0mm 25 W/m2
17:41 45.7 °F /  7.6 °C 36.1 °F /  2.3 °C 30.4in /  1028.8hPa Calm   7mph /  11.3km/h 69% 0in /  0.0mm 21 W/m2
17:46 45.5 °F /  7.5 °C 36 °F /  2.2 °C 30.4in /  1028.8hPa WSW 2mph /  3.2km/h 6mph /  9.7km/h 69% 0in /  0.0mm 16 W/m2
17:51 45.3 °F /  7.4 °C 36.1 °F /  2.3 °C 30.4in /  1028.8hPa WNW 0.9mph /  1.4km/h 1mph /  1.6km/h 70% 0in /  0.0mm 9 W/m2
17:56 45.1 °F /  7.3 °C 36 °F /  2.2 °C 30.4in /  1028.8hPa WSW 4mph /  6.4km/h 4mph /  6.4km/h 70% 0in /  0.0mm 5 W/m2
18:01 45 °F /  7.2 °C 36.1 °F /  2.3 °C 30.4in /  1028.8hPa Calm   2mph /  3.2km/h 71% 0in /  0.0mm 0 W/m2
18:06 44.8 °F /  7.1 °C 36 °F /  2.2 °C 30.4in /  1028.8hPa West 0.9mph /  1.4km/h 4mph /  6.4km/h 71% 0in /  0.0mm 0 W/m2
18:11 44.6 °F /  7 °C 36.1 °F /  2.3 °C 30.4in /  1028.5hPa Calm   8mph /  12.9km/h 72% 0in /  0.0mm 0 W/m2
18:16 44.4 °F /  6.9 °C 36.3 °F /  2.4 °C 30.4in /  1028.5hPa SE 0.9mph /  1.4km/h 1mph /  1.6km/h 73% 0in /  0.0mm 0 W/m2
18:21 44.1 °F /  6.7 °C 36 °F /  2.2 °C 30.4in /  1028.8hPa Calm   1mph /  1.6km/h 73% 0in /  0.0mm 0 W/m2
18:26 43.9 °F /  6.6 °C 36.1 °F /  2.3 °C 30.4in /  1028.8hPa Calm   1mph /  1.6km/h 74% 0in /  0.0mm 0 W/m2
18:31 43.7 °F /  6.5 °C 36 °F /  2.2 °C 30.4in /  1028.8hPa SE 0.9mph /  1.4km/h 1mph /  1.6km/h 74% 0in /  0.0mm 0 W/m2
18:36 43.3 °F /  6.3 °C 36 °F /  2.2 °C 30.4in /  1028.8hPa Calm   1mph /  1.6km/h 75% 0in /  0.0mm 0 W/m2
18:41 43.2 °F /  6.2 °C 36.1 °F /  2.3 °C 30.4in /  1029.1hPa Calm     76% 0in /  0.0mm 0 W/m2
18:46 42.6 °F /  5.9 °C 36 °F /  2.2 °C 30.4in /  1029.1hPa SSW 2mph /  3.2km/h 2mph /  3.2km/h 77% 0in /  0.0mm 0 W/m2
18:51 42.6 °F /  5.9 °C 36 °F /  2.2 °C 30.4in /  1028.8hPa Calm   1mph /  1.6km/h 77% 0in /  0.0mm 0 W/m2
18:56 42.4 °F /  5.8 °C 36.1 °F /  2.3 °C 30.4in /  1028.8hPa Calm   1mph /  1.6km/h 78% 0in /  0.0mm 0 W/m2
19:01 42.3 °F /  5.7 °C 36.1 °F /  2.3 °C 30.4in /  1029.1hPa Calm     79% 0in /  0.0mm 0 W/m2
19:06 41.9 °F /  5.5 °C 35.8 °F /  2.1 °C 30.4in /  1029.1hPa Calm   1mph /  1.6km/h 79% 0in /  0.0mm 0 W/m2
19:11 41.7 °F /  5.4 °C 36 °F /  2.2 °C 30.4in /  1029.1hPa ENE 0.9mph /  1.4km/h 1mph /  1.6km/h 80% 0in /  0.0mm 0 W/m2
19:16 41.5 °F /  5.3 °C 35.8 °F /  2.1 °C 30.4in /  1029.1hPa Calm   1mph /  1.6km/h 80% 0in /  0.0mm 0 W/m2
19:21 41.5 °F /  5.3 °C 36.1 °F /  2.3 °C 30.4in /  1029.1hPa ESE 2.9mph /  4.7km/h 4mph /  6.4km/h 81% 0in /  0.0mm 0 W/m2
19:26 41.5 °F /  5.3 °C 36.1 °F /  2.3 °C 30.4in /  1029.5hPa Calm   1mph /  1.6km/h 81% 0in /  0.0mm 0 W/m2
19:31 41.5 °F /  5.3 °C 36.1 °F /  2.3 °C 30.4in /  1029.1hPa SSE 0.9mph /  1.4km/h 2mph /  3.2km/h 81% 0in /  0.0mm 0 W/m2
19:36 41.4 °F /  5.2 °C 36 °F /  2.2 °C 30.4in /  1029.1hPa SSE 2mph /  3.2km/h 2mph /  3.2km/h 81% 0in /  0.0mm 0 W/m2
19:41 41.4 °F /  5.2 °C 36.3 °F /  2.4 °C 30.4in /  1029.1hPa Calm   1mph /  1.6km/h 82% 0in /  0.0mm 0 W/m2
19:46 41.2 °F /  5.1 °C 36.1 °F /  2.3 °C 30.4in /  1029.1hPa SE 0.9mph /  1.4km/h 1mph /  1.6km/h 82% 0in /  0.0mm 0 W/m2
19:51 41.2 °F /  5.1 °C 36.1 °F /  2.3 °C 30.4in /  1028.8hPa ESE 0.9mph /  1.4km/h 2mph /  3.2km/h 82% 0in /  0.0mm 0 W/m2
19:56 41 °F /  5 °C 36 °F /  2.2 °C 30.4in /  1028.8hPa ESE 0.9mph /  1.4km/h 1mph /  1.6km/h 82% 0in /  0.0mm 0 W/m2
20:01 40.8 °F /  4.9 °C 36.1 °F /  2.3 °C 30.4in /  1028.8hPa NE 0.9mph /  1.4km/h 1mph /  1.6km/h 83% 0in /  0.0mm 0 W/m2
20:06 40.8 °F /  4.9 °C 36.1 °F /  2.3 °C 30.4in /  1029.1hPa ENE 0.9mph /  1.4km/h 1mph /  1.6km/h 83% 0in /  0.0mm 0 W/m2
20:11 40.8 °F /  4.9 °C 36.1 °F /  2.3 °C 30.4in /  1029.1hPa Calm     83% 0in /  0.0mm 0 W/m2
20:16 40.6 °F /  4.8 °C 36 °F /  2.2 °C 30.4in /  1029.5hPa Calm   2mph /  3.2km/h 83% 0in /  0.0mm 0 W/m2
20:21 40.6 °F /  4.8 °C 36.1 °F /  2.3 °C 30.4in /  1029.1hPa East 0.9mph /  1.4km/h 2mph /  3.2km/h 84% 0in /  0.0mm 0 W/m2
20:26 40.5 °F /  4.7 °C 36 °F /  2.2 °C 30.4in /  1029.1hPa ESE 0.9mph /  1.4km/h 1mph /  1.6km/h 84% 0in /  0.0mm 0 W/m2
20:31 40.5 °F /  4.7 °C 36 °F /  2.2 °C 30.4in /  1029.1hPa ESE 0.9mph /  1.4km/h 2mph /  3.2km/h 84% 0in /  0.0mm 0 W/m2
20:36 40.5 °F /  4.7 °C 36.3 °F /  2.4 °C 30.4in /  1029.1hPa East 0.9mph /  1.4km/h 1mph /  1.6km/h 85% 0in /  0.0mm 0 W/m2
20:41 40.5 °F /  4.7 °C 36.3 °F /  2.4 °C 30.4in /  1028.8hPa ESE 2.9mph /  4.7km/h 3mph /  4.8km/h 85% 0in /  0.0mm 0 W/m2
20:46 40.6 °F /  4.8 °C 36.5 °F /  2.5 °C 30.4in /  1028.8hPa Calm   1mph /  1.6km/h 85% 0in /  0.0mm 0 W/m2
20:51 40.8 °F /  4.9 °C 36.3 °F /  2.4 °C 30.4in /  1029.1hPa Calm   1mph /  1.6km/h 84% 0in /  0.0mm 0 W/m2
20:56 41.2 °F /  5.1 °C 36.5 °F /  2.5 °C 30.4in /  1029.1hPa NE 0.9mph /  1.4km/h 1mph /  1.6km/h 83% 0in /  0.0mm 0 W/m2
21:01 41.4 °F /  5.2 °C 36.5 °F /  2.5 °C 30.4in /  1029.1hPa SSW 2.9mph /  4.7km/h 3mph /  4.8km/h 83% 0in /  0.0mm 0 W/m2
21:06 41.4 °F /  5.2 °C 36.5 °F /  2.5 °C 30.4in /  1029.1hPa West 0.9mph /  1.4km/h 1mph /  1.6km/h 83% 0in /  0.0mm 0 W/m2
21:11 41.5 °F /  5.3 °C 36.5 °F /  2.5 °C 30.4in /  1029.1hPa Calm   2mph /  3.2km/h 82% 0in /  0.0mm 0 W/m2
21:16 41.5 °F /  5.3 °C 36.5 °F /  2.5 °C 30.4in /  1029.1hPa Calm   2mph /  3.2km/h 82% 0in /  0.0mm 0 W/m2
21:21 41.4 °F /  5.2 °C 36.3 °F /  2.4 °C 30.4in /  1029.1hPa ENE 0.9mph /  1.4km/h 2mph /  3.2km/h 82% 0in /  0.0mm 0 W/m2
21:26 41.5 °F /  5.3 °C 36.5 °F /  2.5 °C 30.4in /  1029.1hPa ENE 0.9mph /  1.4km/h 1mph /  1.6km/h 82% 0in /  0.0mm 0 W/m2
21:31 41.2 °F /  5.1 °C 36.1 °F /  2.3 °C 30.4in /  1029.1hPa ENE 0.9mph /  1.4km/h 1mph /  1.6km/h 82% 0in /  0.0mm 0 W/m2
21:36 41.2 °F /  5.1 °C 36.5 °F /  2.5 °C 30.4in /  1029.1hPa Calm   1mph /  1.6km/h 83% 0in /  0.0mm 0 W/m2
21:41 41.2 °F /  5.1 °C 36.5 °F /  2.5 °C 30.4in /  1029.1hPa NNE 0.9mph /  1.4km/h 3mph /  4.8km/h 83% 0in /  0.0mm 0 W/m2
21:46 41.4 °F /  5.2 °C 36.5 °F /  2.5 °C 30.4in /  1029.5hPa NNW 0.9mph /  1.4km/h 2mph /  3.2km/h 83% 0in /  0.0mm 0 W/m2
21:51 41.4 °F /  5.2 °C 36.3 °F /  2.4 °C 30.4in /  1029.5hPa WNW 2.9mph /  4.7km/h 5mph /  8km/h 82% 0in /  0.0mm 0 W/m2
21:56 41.5 °F /  5.3 °C 36.5 °F /  2.5 °C 30.4in /  1029.1hPa WSW 0.9mph /  1.4km/h 2mph /  3.2km/h 82% 0in /  0.0mm 0 W/m2
22:01 41.7 °F /  5.4 °C 36.7 °F /  2.6 °C 30.4in /  1029.1hPa NW 0.9mph /  1.4km/h 3mph /  4.8km/h 82% 0in /  0.0mm 0 W/m2
22:06 41.7 °F /  5.4 °C 36.7 °F /  2.6 °C 30.4in /  1029.5hPa Calm   2mph /  3.2km/h 82% 0in /  0.0mm 0 W/m2
22:11 41.7 °F /  5.4 °C 36.3 °F /  2.4 °C 30.4in /  1029.1hPa ENE 0.9mph /  1.4km/h 2mph /  3.2km/h 81% 0in /  0.0mm 0 W/m2
22:16 41.5 °F /  5.3 °C 36.1 °F /  2.3 °C 30.4in /  1029.1hPa East 2mph /  3.2km/h 2mph /  3.2km/h 81% 0in /  0.0mm 0 W/m2
22:21 41.4 °F /  5.2 °C 36 °F /  2.2 °C 30.4in /  1028.8hPa ESE 0.9mph /  1.4km/h 1mph /  1.6km/h 81% 0in /  0.0mm 0 W/m2
22:26 41.2 °F /  5.1 °C 36.1 °F /  2.3 °C 30.4in /  1029.1hPa NNW 0.9mph /  1.4km/h 1mph /  1.6km/h 82% 0in /  0.0mm 0 W/m2
22:31 41 °F /  5 °C 36 °F /  2.2 °C 30.4in /  1029.1hPa Calm     82% 0in /  0.0mm 0 W/m2
22:36 40.6 °F /  4.8 °C 35.6 °F /  2 °C 30.4in /  1029.1hPa NNW 0.9mph /  1.4km/h 2mph /  3.2km/h 82% 0in /  0.0mm 0 W/m2
22:42 40.5 °F /  4.7 °C 35.8 °F /  2.1 °C 30.4in /  1029.1hPa Calm   1mph /  1.6km/h 83% 0in /  0.0mm 0 W/m2
22:47 40.3 °F /  4.6 °C 35.8 °F /  2.1 °C 30.4in /  1029.1hPa Calm   1mph /  1.6km/h 84% 0in /  0.0mm 0 W/m2
22:52 40.3 °F /  4.6 °C 35.8 °F /  2.1 °C 30.4in /  1029.1hPa Calm   3mph /  4.8km/h 84% 0in /  0.0mm 0 W/m2
22:57 40.3 °F /  4.6 °C 35.8 °F /  2.1 °C 30.4in /  1029.1hPa Calm   2mph /  3.2km/h 84% 0in /  0.0mm 0 W/m2
23:02 40.1 °F /  4.5 °C 35.6 °F /  2 °C 30.4in /  1028.8hPa Calm   4mph /  6.4km/h 84% 0in /  0.0mm 0 W/m2
23:07 39.7 °F /  4.3 °C 35.2 °F /  1.8 °C 30.4in /  1028.8hPa NNE 2mph /  3.2km/h 2mph /  3.2km/h 84% 0in /  0.0mm 0 W/m2
23:12 39.7 °F /  4.3 °C 35.6 °F /  2 °C 30.4in /  1028.8hPa ESE 0.9mph /  1.4km/h 2mph /  3.2km/h 85% 0in /  0.0mm 0 W/m2
23:17 39.6 °F /  4.2 °C 35.1 °F /  1.7 °C 30.4in /  1028.8hPa ESE 2mph /  3.2km/h 2mph /  3.2km/h 84% 0in /  0.0mm 0 W/m2
23:22 39.2 °F /  4 °C 35.1 °F /  1.7 °C 30.4in /  1028.8hPa ESE 0.9mph /  1.4km/h 2mph /  3.2km/h 85% 0in /  0.0mm 0 W/m2
23:27 39 °F /  3.9 °C 35.2 °F /  1.8 °C 30.4in /  1028.8hPa ENE 2mph /  3.2km/h 2mph /  3.2km/h 86% 0in /  0.0mm 0 W/m2
23:32 39 °F /  3.9 °C 35.2 °F /  1.8 °C 30.4in /  1028.5hPa East 2mph /  3.2km/h 3mph /  4.8km/h 86% 0in /  0.0mm 0 W/m2
23:37 38.7 °F /  3.7 °C 34.9 °F /  1.6 °C 30.4in /  1028.5hPa ESE 2mph /  3.2km/h 2mph /  3.2km/h 86% 0in /  0.0mm 0 W/m2
23:42 38.5 °F /  3.6 °C 34.7 °F /  1.5 °C 30.4in /  1028.5hPa ESE 0.9mph /  1.4km/h 2mph /  3.2km/h 86% 0in /  0.0mm 0 W/m2
23:47 38.5 °F /  3.6 °C 34.9 °F /  1.6 °C 30.4in /  1028.5hPa ESE 0.9mph /  1.4km/h 2mph /  3.2km/h 87% 0in /  0.0mm 0 W/m2
23:52 38.3 °F /  3.5 °C 34.7 °F /  1.5 °C 30.4in /  1028.5hPa Calm     87% 0in /  0.0mm 0 W/m2
23:57 38.3 °F /  3.5 °C 35.1 °F /  1.7 °C 30.4in /  1028.5hPa ESE 0.9mph /  1.4km/h 4mph /  6.4km/h 88% 0in /  0.0mm 0 W/m2
Juneau County Weather
Compliments of Weather Underground - 4 mb